sensor_id;sensor_type;location;lat;lon;timestamp;P1;durP1;ratioP1;P2;durP2;ratioP2
59038;SDS011;44824;43.376;19.630;2022-11-15T00:00:33;64.70;;;41.80;;
59038;SDS011;44824;43.376;19.630;2022-11-15T00:02:59;59.45;;;40.50;;
59038;SDS011;44824;43.376;19.630;2022-11-15T00:05:26;58.63;;;41.10;;
59038;SDS011;44824;43.376;19.630;2022-11-15T00:07:52;59.83;;;41.63;;
59038;SDS011;44824;43.376;19.630;2022-11-15T00:10:18;64.32;;;42.10;;
59038;SDS011;44824;43.376;19.630;2022-11-15T00:12:44;55.70;;;38.55;;
59038;SDS011;44824;43.376;19.630;2022-11-15T00:33:20;133.63;;;83.18;;
59038;SDS011;44824;43.376;19.630;2022-11-15T00:35:47;89.90;;;59.53;;
59038;SDS011;44824;43.376;19.630;2022-11-15T00:38:13;86.18;;;57.25;;
59038;SDS011;44824;43.376;19.630;2022-11-15T00:40:39;89.43;;;61.63;;
59038;SDS011;44824;43.376;19.630;2022-11-15T01:29:49;90.50;;;63.83;;
59038;SDS011;44824;43.376;19.630;2022-11-15T01:32:25;95.55;;;64.72;;
59038;SDS011;44824;43.376;19.630;2022-11-15T01:34:51;96.57;;;65.57;;
59038;SDS011;44824;43.376;19.630;2022-11-15T01:37:17;90.03;;;63.35;;
59038;SDS011;44824;43.376;19.630;2022-11-15T01:39:43;91.18;;;61.95;;
59038;SDS011;44824;43.376;19.630;2022-11-15T01:42:12;89.78;;;58.92;;
59038;SDS011;44824;43.376;19.630;2022-11-15T01:50:12;81.03;;;57.72;;
59038;SDS011;44824;43.376;19.630;2022-11-15T01:52:39;97.60;;;63.95;;
59038;SDS011;44824;43.376;19.630;2022-11-15T02:32:57;87.50;;;60.85;;
59038;SDS011;44824;43.376;19.630;2022-11-15T02:38:05;81.65;;;58.88;;
59038;SDS011;44824;43.376;19.630;2022-11-15T02:40:35;85.43;;;62.20;;
59038;SDS011;44824;43.376;19.630;2022-11-15T02:43:11;88.82;;;62.38;;
59038;SDS011;44824;43.376;19.630;2022-11-15T02:46:00;86.50;;;60.67;;
59038;SDS011;44824;43.376;19.630;2022-11-15T04:08:07;87.88;;;59.95;;
59038;SDS011;44824;43.376;19.630;2022-11-15T04:10:33;92.35;;;62.38;;
59038;SDS011;44824;43.376;19.630;2022-11-15T04:13:01;86.80;;;59.33;;
59038;SDS011;44824;43.376;19.630;2022-11-15T04:15:27;81.05;;;59.30;;
59038;SDS011;44824;43.376;19.630;2022-11-15T04:17:59;86.18;;;60.25;;
59038;SDS011;44824;43.376;19.630;2022-11-15T04:20:26;87.65;;;61.90;;
59038;SDS011;44824;43.376;19.630;2022-11-15T04:23:21;89.70;;;61.92;;
59038;SDS011;44824;43.376;19.630;2022-11-15T05:53:11;117.68;;;76.25;;
59038;SDS011;44824;43.376;19.630;2022-11-15T05:55:44;123.18;;;78.82;;
59038;SDS011;44824;43.376;19.630;2022-11-15T05:58:10;117.28;;;75.05;;
59038;SDS011;44824;43.376;19.630;2022-11-15T06:00:36;101.05;;;68.25;;
59038;SDS011;44824;43.376;19.630;2022-11-15T07:15:32;111.82;;;61.53;;
59038;SDS011;44824;43.376;19.630;2022-11-15T07:18:00;99.40;;;57.47;;
59038;SDS011;44824;43.376;19.630;2022-11-15T07:20:26;111.13;;;59.80;;
59038;SDS011;44824;43.376;19.630;2022-11-15T07:22:59;101.80;;;54.60;;
59038;SDS011;44824;43.376;19.630;2022-11-15T07:25:25;97.25;;;54.25;;
59038;SDS011;44824;43.376;19.630;2022-11-15T07:28:06;86.60;;;51.83;;
59038;SDS011;44824;43.376;19.630;2022-11-15T07:30:32;86.68;;;51.10;;
59038;SDS011;44824;43.376;19.630;2022-11-15T07:33:04;95.82;;;59.90;;
59038;SDS011;44824;43.376;19.630;2022-11-15T07:35:30;93.05;;;58.60;;
59038;SDS011;44824;43.376;19.630;2022-11-15T07:38:00;84.40;;;54.65;;
59038;SDS011;44824;43.376;19.630;2022-11-15T07:40:27;83.63;;;46.60;;
59038;SDS011;44824;43.376;19.630;2022-11-15T07:43:04;124.18;;;51.42;;
59038;SDS011;44824;43.376;19.630;2022-11-15T07:45:30;141.35;;;54.95;;
59038;SDS011;44824;43.376;19.630;2022-11-15T07:48:15;100.57;;;50.78;;
59038;SDS011;44824;43.376;19.630;2022-11-15T07:53:58;105.20;;;49.00;;
59038;SDS011;44824;43.376;19.630;2022-11-15T07:56:30;112.95;;;50.70;;
59038;SDS011;44824;43.376;19.630;2022-11-15T07:58:56;112.32;;;51.88;;
59038;SDS011;44824;43.376;19.630;2022-11-15T08:15:59;96.90;;;45.15;;
59038;SDS011;44824;43.376;19.630;2022-11-15T08:18:25;181.80;;;61.70;;
59038;SDS011;44824;43.376;19.630;2022-11-15T08:21:00;89.85;;;47.58;;
59038;SDS011;44824;43.376;19.630;2022-11-15T08:23:26;99.90;;;47.20;;
59038;SDS011;44824;43.376;19.630;2022-11-15T08:25:53;71.97;;;39.63;;
59038;SDS011;44824;43.376;19.630;2022-11-15T08:28:24;94.32;;;46.63;;
59038;SDS011;44824;43.376;19.630;2022-11-15T08:30:50;77.10;;;42.33;;
59038;SDS011;44824;43.376;19.630;2022-11-15T08:33:16;70.78;;;41.03;;
59038;SDS011;44824;43.376;19.630;2022-11-15T08:35:51;62.22;;;36.55;;
59038;SDS011;44824;43.376;19.630;2022-11-15T08:38:17;69.80;;;43.13;;
59038;SDS011;44824;43.376;19.630;2022-11-15T08:40:43;79.07;;;48.28;;
59038;SDS011;44824;43.376;19.630;2022-11-15T08:43:09;73.03;;;46.65;;
59038;SDS011;44824;43.376;19.630;2022-11-15T08:45:35;63.33;;;39.50;;
59038;SDS011;44824;43.376;19.630;2022-11-15T08:48:02;55.90;;;34.15;;
59038;SDS011;44824;43.376;19.630;2022-11-15T08:50:28;60.15;;;41.88;;
59038;SDS011;44824;43.376;19.630;2022-11-15T08:52:54;80.90;;;38.40;;
59038;SDS011;44824;43.376;19.630;2022-11-15T08:55:20;69.35;;;37.00;;
59038;SDS011;44824;43.376;19.630;2022-11-15T08:57:46;79.93;;;41.72;;
59038;SDS011;44824;43.376;19.630;2022-11-15T09:00:12;70.10;;;37.60;;
59038;SDS011;44824;43.376;19.630;2022-11-15T09:02:39;64.28;;;38.00;;
59038;SDS011;44824;43.376;19.630;2022-11-15T09:05:05;70.85;;;38.55;;
59038;SDS011;44824;43.376;19.630;2022-11-15T09:07:32;63.53;;;37.95;;
59038;SDS011;44824;43.376;19.630;2022-11-15T09:09:58;75.72;;;39.50;;
59038;SDS011;44824;43.376;19.630;2022-11-15T09:12:24;59.42;;;36.40;;
59038;SDS011;44824;43.376;19.630;2022-11-15T09:14:50;49.77;;;31.27;;
59038;SDS011;44824;43.376;19.630;2022-11-15T09:17:16;48.78;;;30.15;;
59038;SDS011;44824;43.376;19.630;2022-11-15T09:19:42;49.83;;;30.13;;
59038;SDS011;44824;43.376;19.630;2022-11-15T09:22:08;71.25;;;38.90;;
59038;SDS011;44824;43.376;19.630;2022-11-15T09:24:35;61.85;;;36.88;;
59038;SDS011;44824;43.376;19.630;2022-11-15T09:27:01;69.55;;;38.50;;
59038;SDS011;44824;43.376;19.630;2022-11-15T09:29:27;64.80;;;37.83;;
59038;SDS011;44824;43.376;19.630;2022-11-15T09:31:56;44.22;;;29.23;;
59038;SDS011;44824;43.376;19.630;2022-11-15T09:40:18;53.38;;;33.75;;
59038;SDS011;44824;43.376;19.630;2022-11-15T09:45:47;44.35;;;33.35;;
59038;SDS011;44824;43.376;19.630;2022-11-15T09:48:24;43.67;;;32.10;;
59038;SDS011;44824;43.376;19.630;2022-11-15T09:50:52;43.08;;;29.50;;
59038;SDS011;44824;43.376;19.630;2022-11-15T09:53:29;41.13;;;29.88;;
59038;SDS011;44824;43.376;19.630;2022-11-15T09:56:02;44.50;;;31.02;;
59038;SDS011;44824;43.376;19.630;2022-11-15T10:01:18;39.22;;;28.33;;
59038;SDS011;44824;43.376;19.630;2022-11-15T10:03:45;36.08;;;26.42;;
59038;SDS011;44824;43.376;19.630;2022-11-15T10:06:21;39.33;;;28.67;;
59038;SDS011;44824;43.376;19.630;2022-11-15T10:11:19;42.38;;;29.92;;
59038;SDS011;44824;43.376;19.630;2022-11-15T10:13:46;42.15;;;30.48;;
59038;SDS011;44824;43.376;19.630;2022-11-15T10:18:52;42.22;;;29.98;;
59038;SDS011;44824;43.376;19.630;2022-11-15T10:21:20;40.03;;;30.20;;
59038;SDS011;44824;43.376;19.630;2022-11-15T10:23:48;34.35;;;25.17;;
59038;SDS011;44824;43.376;19.630;2022-11-15T10:26:15;43.03;;;29.60;;
59038;SDS011;44824;43.376;19.630;2022-11-15T10:28:41;39.28;;;26.50;;
59038;SDS011;44824;43.376;19.630;2022-11-15T10:31:27;39.83;;;26.70;;
59038;SDS011;44824;43.376;19.630;2022-11-15T10:36:55;40.67;;;25.42;;
59038;SDS011;44824;43.376;19.630;2022-11-15T10:39:21;34.65;;;24.30;;
59038;SDS011;44824;43.376;19.630;2022-11-15T10:41:48;33.10;;;24.30;;
59038;SDS011;44824;43.376;19.630;2022-11-15T10:46:46;38.00;;;22.50;;
59038;SDS011;44824;43.376;19.630;2022-11-15T10:49:19;35.17;;;22.95;;
59038;SDS011;44824;43.376;19.630;2022-11-15T10:52:01;43.05;;;30.13;;
59038;SDS011;44824;43.376;19.630;2022-11-15T10:54:29;39.47;;;28.98;;
59038;SDS011;44824;43.376;19.630;2022-11-15T10:56:58;51.08;;;39.25;;
59038;SDS011;44824;43.376;19.630;2022-11-15T10:59:31;38.08;;;28.58;;
59038;SDS011;44824;43.376;19.630;2022-11-15T11:01:58;47.90;;;33.08;;
59038;SDS011;44824;43.376;19.630;2022-11-15T11:04:25;45.97;;;29.83;;
59038;SDS011;44824;43.376;19.630;2022-11-15T11:16:34;46.90;;;33.72;;
59038;SDS011;44824;43.376;19.630;2022-11-15T11:21:57;52.47;;;38.30;;
59038;SDS011;44824;43.376;19.630;2022-11-15T11:50:45;43.55;;;31.23;;
59038;SDS011;44824;43.376;19.630;2022-11-15T11:53:25;40.17;;;29.23;;
59038;SDS011;44824;43.376;19.630;2022-11-15T11:55:53;46.72;;;37.05;;
59038;SDS011;44824;43.376;19.630;2022-11-15T12:00:47;40.72;;;30.20;;
59038;SDS011;44824;43.376;19.630;2022-11-15T12:24:08;43.78;;;34.35;;
59038;SDS011;44824;43.376;19.630;2022-11-15T12:26:38;41.80;;;31.70;;
59038;SDS011;44824;43.376;19.630;2022-11-15T12:31:48;31.08;;;24.05;;
59038;SDS011;44824;43.376;19.630;2022-11-15T12:36:45;26.55;;;19.52;;
59038;SDS011;44824;43.376;19.630;2022-11-15T12:39:12;27.42;;;21.10;;
59038;SDS011;44824;43.376;19.630;2022-11-15T12:41:39;26.50;;;19.30;;
59038;SDS011;44824;43.376;19.630;2022-11-15T12:44:10;29.70;;;20.33;;
59038;SDS011;44824;43.376;19.630;2022-11-15T12:49:10;34.00;;;23.48;;
59038;SDS011;44824;43.376;19.630;2022-11-15T13:02:33;39.00;;;27.42;;
59038;SDS011;44824;43.376;19.630;2022-11-15T13:18:38;27.30;;;21.67;;
59038;SDS011;44824;43.376;19.630;2022-11-15T13:20:56;29.92;;;23.63;;
59038;SDS011;44824;43.376;19.630;2022-11-15T13:23:22;31.52;;;23.10;;
59038;SDS011;44824;43.376;19.630;2022-11-15T13:33:50;40.35;;;27.90;;
59038;SDS011;44824;43.376;19.630;2022-11-15T13:38:43;49.35;;;28.63;;
59038;SDS011;44824;43.376;19.630;2022-11-15T13:41:26;44.63;;;30.90;;
59038;SDS011;44824;43.376;19.630;2022-11-15T13:43:53;47.45;;;27.08;;
59038;SDS011;44824;43.376;19.630;2022-11-15T13:46:23;44.53;;;24.77;;
59038;SDS011;44824;43.376;19.630;2022-11-15T13:49:00;49.33;;;26.90;;
59038;SDS011;44824;43.376;19.630;2022-11-15T13:51:43;60.40;;;43.63;;
59038;SDS011;44824;43.376;19.630;2022-11-15T13:54:30;56.75;;;39.17;;
59038;SDS011;44824;43.376;19.630;2022-11-15T13:59:47;60.83;;;37.72;;
59038;SDS011;44824;43.376;19.630;2022-11-15T14:02:15;52.97;;;30.10;;
59038;SDS011;44824;43.376;19.630;2022-11-15T14:04:50;44.30;;;28.50;;
59038;SDS011;44824;43.376;19.630;2022-11-15T14:07:21;51.53;;;30.90;;
59038;SDS011;44824;43.376;19.630;2022-11-15T14:09:47;59.25;;;31.58;;
59038;SDS011;44824;43.376;19.630;2022-11-15T14:14:46;47.83;;;28.73;;
59038;SDS011;44824;43.376;19.630;2022-11-15T14:17:19;50.10;;;33.28;;
59038;SDS011;44824;43.376;19.630;2022-11-15T14:19:45;51.40;;;33.30;;
59038;SDS011;44824;43.376;19.630;2022-11-15T14:24:37;50.63;;;31.90;;
59038;SDS011;44824;43.376;19.630;2022-11-15T14:27:20;53.05;;;35.25;;
59038;SDS011;44824;43.376;19.630;2022-11-15T14:29:47;55.63;;;35.72;;
59038;SDS011;44824;43.376;19.630;2022-11-15T14:32:24;62.03;;;42.83;;
59038;SDS011;44824;43.376;19.630;2022-11-15T14:34:55;83.38;;;46.95;;
59038;SDS011;44824;43.376;19.630;2022-11-15T14:39:47;70.20;;;39.72;;
59038;SDS011;44824;43.376;19.630;2022-11-15T14:42:13;94.60;;;47.70;;
59038;SDS011;44824;43.376;19.630;2022-11-15T14:44:39;64.18;;;43.58;;
59038;SDS011;44824;43.376;19.630;2022-11-15T14:47:06;69.18;;;39.72;;
59038;SDS011;44824;43.376;19.630;2022-11-15T14:49:32;55.87;;;36.60;;
59038;SDS011;44824;43.376;19.630;2022-11-15T14:52:12;53.35;;;35.47;;
59038;SDS011;44824;43.376;19.630;2022-11-15T14:59:49;88.45;;;49.00;;
59038;SDS011;44824;43.376;19.630;2022-11-15T15:02:19;69.57;;;43.22;;
59038;SDS011;44824;43.376;19.630;2022-11-15T15:04:46;113.90;;;82.25;;
59038;SDS011;44824;43.376;19.630;2022-11-15T15:07:12;231.68;;;163.52;;
59038;SDS011;44824;43.376;19.630;2022-11-15T15:09:38;98.97;;;58.42;;
59038;SDS011;44824;43.376;19.630;2022-11-15T15:12:17;105.47;;;51.30;;
59038;SDS011;44824;43.376;19.630;2022-11-15T15:14:44;87.65;;;51.25;;
59038;SDS011;44824;43.376;19.630;2022-11-15T15:17:11;71.47;;;44.88;;
59038;SDS011;44824;43.376;19.630;2022-11-15T15:19:37;69.97;;;46.78;;
59038;SDS011;44824;43.376;19.630;2022-11-15T15:22:03;78.15;;;47.67;;
59038;SDS011;44824;43.376;19.630;2022-11-15T15:24:29;65.10;;;40.67;;
59038;SDS011;44824;43.376;19.630;2022-11-15T15:26:55;85.22;;;54.72;;
59038;SDS011;44824;43.376;19.630;2022-11-15T15:29:22;90.45;;;54.80;;
59038;SDS011;44824;43.376;19.630;2022-11-15T15:55:10;83.93;;;55.97;;
59038;SDS011;44824;43.376;19.630;2022-11-15T15:57:36;75.65;;;50.35;;
59038;SDS011;44824;43.376;19.630;2022-11-15T16:02:38;81.28;;;49.10;;
59038;SDS011;44824;43.376;19.630;2022-11-15T16:05:04;88.32;;;54.33;;
59038;SDS011;44824;43.376;19.630;2022-11-15T16:07:34;70.25;;;49.10;;
59038;SDS011;44824;43.376;19.630;2022-11-15T16:10:00;62.33;;;44.17;;
59038;SDS011;44824;43.376;19.630;2022-11-15T16:12:28;62.88;;;42.22;;
59038;SDS011;44824;43.376;19.630;2022-11-15T16:14:57;72.95;;;50.42;;
59038;SDS011;44824;43.376;19.630;2022-11-15T17:11:15;87.70;;;58.78;;
59038;SDS011;44824;43.376;19.630;2022-11-15T17:13:41;86.15;;;58.90;;
59038;SDS011;44824;43.376;19.630;2022-11-15T17:16:09;84.82;;;58.50;;
59038;SDS011;44824;43.376;19.630;2022-11-15T17:18:36;74.65;;;51.85;;
59038;SDS011;44824;43.376;19.630;2022-11-15T17:23:38;84.65;;;56.08;;
59038;SDS011;44824;43.376;19.630;2022-11-15T17:26:04;79.50;;;52.47;;
59038;SDS011;44824;43.376;19.630;2022-11-15T17:28:31;101.03;;;70.75;;
59038;SDS011;44824;43.376;19.630;2022-11-15T17:30:57;87.13;;;56.00;;
59038;SDS011;44824;43.376;19.630;2022-11-15T17:33:24;65.82;;;44.85;;
59038;SDS011;44824;43.376;19.630;2022-11-15T17:35:54;77.13;;;51.70;;
59038;SDS011;44824;43.376;19.630;2022-11-15T18:04:18;113.28;;;75.25;;
59038;SDS011;44824;43.376;19.630;2022-11-15T18:06:44;119.10;;;77.85;;
59038;SDS011;44824;43.376;19.630;2022-11-15T18:09:20;96.53;;;64.32;;
59038;SDS011;44824;43.376;19.630;2022-11-15T18:11:46;90.95;;;64.43;;
59038;SDS011;44824;43.376;19.630;2022-11-15T18:14:16;95.18;;;64.75;;
59038;SDS011;44824;43.376;19.630;2022-11-15T18:16:42;111.22;;;64.28;;
59038;SDS011;44824;43.376;19.630;2022-11-15T18:19:08;101.97;;;64.78;;
59038;SDS011;44824;43.376;19.630;2022-11-15T18:21:38;96.00;;;64.15;;
59038;SDS011;44824;43.376;19.630;2022-11-15T18:24:30;104.93;;;68.03;;
59038;SDS011;44824;43.376;19.630;2022-11-15T18:26:58;89.32;;;58.78;;
59038;SDS011;44824;43.376;19.630;2022-11-15T18:29:24;100.45;;;71.32;;
59038;SDS011;44824;43.376;19.630;2022-11-15T18:31:50;111.00;;;73.85;;
59038;SDS011;44824;43.376;19.630;2022-11-15T18:34:24;143.07;;;89.80;;
59038;SDS011;44824;43.376;19.630;2022-11-15T18:36:52;132.27;;;85.85;;
59038;SDS011;44824;43.376;19.630;2022-11-15T18:39:19;76.55;;;53.15;;
59038;SDS011;44824;43.376;19.630;2022-11-15T18:41:45;95.87;;;67.13;;
59038;SDS011;44824;43.376;19.630;2022-11-15T18:44:11;105.00;;;69.20;;
59038;SDS011;44824;43.376;19.630;2022-11-15T18:46:37;105.03;;;67.60;;
59038;SDS011;44824;43.376;19.630;2022-11-15T18:49:04;109.22;;;72.45;;
59038;SDS011;44824;43.376;19.630;2022-11-15T18:54:19;92.40;;;61.83;;
59038;SDS011;44824;43.376;19.630;2022-11-15T18:56:51;97.90;;;68.38;;
59038;SDS011;44824;43.376;19.630;2022-11-15T18:59:35;118.03;;;75.50;;
59038;SDS011;44824;43.376;19.630;2022-11-15T19:17:31;151.13;;;86.97;;
59038;SDS011;44824;43.376;19.630;2022-11-15T19:19:57;157.27;;;88.85;;
59038;SDS011;44824;43.376;19.630;2022-11-15T19:22:23;141.70;;;83.97;;
59038;SDS011;44824;43.376;19.630;2022-11-15T19:24:49;141.40;;;79.90;;
59038;SDS011;44824;43.376;19.630;2022-11-15T19:27:15;140.07;;;80.95;;
59038;SDS011;44824;43.376;19.630;2022-11-15T19:29:49;147.77;;;83.50;;
59038;SDS011;44824;43.376;19.630;2022-11-15T19:32:15;122.88;;;71.50;;
59038;SDS011;44824;43.376;19.630;2022-11-15T19:34:41;118.80;;;70.15;;
59038;SDS011;44824;43.376;19.630;2022-11-15T19:37:07;136.43;;;77.28;;
59038;SDS011;44824;43.376;19.630;2022-11-15T19:39:33;152.35;;;88.43;;
59038;SDS011;44824;43.376;19.630;2022-11-15T19:41:59;129.77;;;69.05;;
59038;SDS011;44824;43.376;19.630;2022-11-15T19:44:25;127.63;;;74.15;;
59038;SDS011;44824;43.376;19.630;2022-11-15T19:46:52;127.88;;;75.53;;
59038;SDS011;44824;43.376;19.630;2022-11-15T19:49:18;121.32;;;69.53;;
59038;SDS011;44824;43.376;19.630;2022-11-15T19:51:45;91.10;;;55.17;;
59038;SDS011;44824;43.376;19.630;2022-11-15T19:54:21;96.07;;;58.08;;
59038;SDS011;44824;43.376;19.630;2022-11-15T19:56:47;98.25;;;58.22;;
59038;SDS011;44824;43.376;19.630;2022-11-15T19:59:13;95.68;;;65.07;;
59038;SDS011;44824;43.376;19.630;2022-11-15T20:01:41;110.30;;;65.28;;
59038;SDS011;44824;43.376;19.630;2022-11-15T20:04:07;121.22;;;73.22;;
59038;SDS011;44824;43.376;19.630;2022-11-15T20:06:35;132.30;;;87.23;;
59038;SDS011;44824;43.376;19.630;2022-11-15T20:11:51;121.25;;;76.10;;
59038;SDS011;44824;43.376;19.630;2022-11-15T20:14:17;113.68;;;74.07;;
59038;SDS011;44824;43.376;19.630;2022-11-15T20:16:56;107.82;;;66.38;;
59038;SDS011;44824;43.376;19.630;2022-11-15T20:19:23;151.30;;;96.75;;
59038;SDS011;44824;43.376;19.630;2022-11-15T20:21:49;142.45;;;90.18;;
59038;SDS011;44824;43.376;19.630;2022-11-15T20:24:21;122.70;;;76.57;;
59038;SDS011;44824;43.376;19.630;2022-11-15T20:26:47;121.45;;;84.40;;
59038;SDS011;44824;43.376;19.630;2022-11-15T20:29:13;101.22;;;62.85;;
59038;SDS011;44824;43.376;19.630;2022-11-15T20:31:39;107.97;;;62.78;;
59038;SDS011;44824;43.376;19.630;2022-11-15T20:34:05;125.53;;;71.63;;
59038;SDS011;44824;43.376;19.630;2022-11-15T20:38:58;113.22;;;68.32;;
59038;SDS011;44824;43.376;19.630;2022-11-15T20:41:30;118.38;;;67.43;;
59038;SDS011;44824;43.376;19.630;2022-11-15T20:43:56;279.42;;;166.77;;
59038;SDS011;44824;43.376;19.630;2022-11-15T20:46:23;96.53;;;64.68;;
59038;SDS011;44824;43.376;19.630;2022-11-15T21:04:12;78.70;;;55.92;;
59038;SDS011;44824;43.376;19.630;2022-11-15T21:06:38;86.70;;;54.15;;
59038;SDS011;44824;43.376;19.630;2022-11-15T21:09:04;103.55;;;60.40;;
59038;SDS011;44824;43.376;19.630;2022-11-15T21:12:10;115.97;;;67.00;;
59038;SDS011;44824;43.376;19.630;2022-11-15T21:14:40;148.10;;;77.40;;
59038;SDS011;44824;43.376;19.630;2022-11-15T21:17:08;167.75;;;90.38;;
59038;SDS011;44824;43.376;19.630;2022-11-15T21:19:34;97.10;;;66.22;;
59038;SDS011;44824;43.376;19.630;2022-11-15T21:22:00;81.88;;;55.42;;
59038;SDS011;44824;43.376;19.630;2022-11-15T21:24:27;95.25;;;58.00;;
59038;SDS011;44824;43.376;19.630;2022-11-15T21:26:54;74.07;;;53.35;;
59038;SDS011;44824;43.376;19.630;2022-11-15T21:29:20;108.32;;;62.15;;
59038;SDS011;44824;43.376;19.630;2022-11-15T21:31:47;93.32;;;57.55;;
59038;SDS011;44824;43.376;19.630;2022-11-15T21:34:13;95.65;;;60.80;;
59038;SDS011;44824;43.376;19.630;2022-11-15T21:36:40;111.90;;;70.73;;
59038;SDS011;44824;43.376;19.630;2022-11-15T21:39:06;97.57;;;61.83;;
59038;SDS011;44824;43.376;19.630;2022-11-15T21:41:32;89.90;;;61.30;;
59038;SDS011;44824;43.376;19.630;2022-11-15T21:43:59;103.88;;;62.60;;
59038;SDS011;44824;43.376;19.630;2022-11-15T21:46:25;111.90;;;56.80;;
59038;SDS011;44824;43.376;19.630;2022-11-15T21:48:53;119.78;;;65.85;;
59038;SDS011;44824;43.376;19.630;2022-11-15T21:51:19;114.18;;;65.10;;
59038;SDS011;44824;43.376;19.630;2022-11-15T21:53:45;123.70;;;67.10;;
59038;SDS011;44824;43.376;19.630;2022-11-15T22:27:21;89.03;;;46.80;;
59038;SDS011;44824;43.376;19.630;2022-11-15T22:29:47;88.05;;;46.72;;
59038;SDS011;44824;43.376;19.630;2022-11-15T22:32:13;94.82;;;52.78;;
59038;SDS011;44824;43.376;19.630;2022-11-15T22:34:39;81.57;;;47.90;;
59038;SDS011;44824;43.376;19.630;2022-11-15T22:37:05;102.35;;;46.67;;
59038;SDS011;44824;43.376;19.630;2022-11-15T22:39:31;104.40;;;50.78;;
59038;SDS011;44824;43.376;19.630;2022-11-15T22:41:57;105.43;;;47.47;;
59038;SDS011;44824;43.376;19.630;2022-11-15T22:44:23;118.75;;;61.88;;
59038;SDS011;44824;43.376;19.630;2022-11-15T22:46:49;101.93;;;51.30;;
59038;SDS011;44824;43.376;19.630;2022-11-15T22:49:15;113.85;;;54.38;;
59038;SDS011;44824;43.376;19.630;2022-11-15T22:51:41;102.20;;;53.40;;
59038;SDS011;44824;43.376;19.630;2022-11-15T22:54:08;120.45;;;55.70;;
59038;SDS011;44824;43.376;19.630;2022-11-15T23:35:12;146.55;;;67.57;;
59038;SDS011;44824;43.376;19.630;2022-11-15T23:37:38;214.73;;;67.57;;
59038;SDS011;44824;43.376;19.630;2022-11-15T23:40:04;210.25;;;72.63;;
59038;SDS011;44824;43.376;19.630;2022-11-15T23:42:36;209.27;;;70.18;;
59038;SDS011;44824;43.376;19.630;2022-11-15T23:45:02;240.07;;;81.65;;
59038;SDS011;44824;43.376;19.630;2022-11-15T23:47:28;173.88;;;73.55;;
59038;SDS011;44824;43.376;19.630;2022-11-15T23:49:54;210.43;;;68.05;;
59038;SDS011;44824;43.376;19.630;2022-11-15T23:52:20;155.95;;;63.95;;
59038;SDS011;44824;43.376;19.630;2022-11-15T23:54:47;162.00;;;65.13;;
59038;SDS011;44824;43.376;19.630;2022-11-15T23:57:13;240.33;;;67.60;;
59038;SDS011;44824;43.376;19.630;2022-11-15T23:59:40;142.07;;;66.53;;
